createdAt,value
2017-11-19T00:00:20.779Z,0
2017-11-19T00:01:22.261Z,0
2017-11-19T00:02:23.777Z,0
2017-11-19T00:03:25.248Z,0
2017-11-19T00:04:26.726Z,0
2017-11-19T00:05:28.247Z,0
2017-11-19T00:06:29.783Z,0
2017-11-19T00:07:31.610Z,0
2017-11-19T00:08:33.078Z,0
2017-11-19T00:09:34.565Z,0
2017-11-19T00:10:36.111Z,0
2017-11-19T00:11:37.634Z,0
2017-11-19T00:12:39.080Z,0
2017-11-19T00:13:40.534Z,0
2017-11-19T00:14:42.035Z,0
2017-11-19T00:15:43.478Z,0
2017-11-19T00:16:44.965Z,0
2017-11-19T00:17:46.385Z,0
2017-11-19T00:18:47.850Z,0
2017-11-19T00:19:49.392Z,0
2017-11-19T00:20:50.875Z,0
2017-11-19T00:21:52.364Z,0
2017-11-19T00:22:53.900Z,0
2017-11-19T00:23:55.380Z,0
2017-11-19T00:24:56.836Z,0
2017-11-19T00:25:58.376Z,0
2017-11-19T00:26:59.832Z,0
2017-11-19T00:28:01.342Z,0
2017-11-19T00:29:02.812Z,0
2017-11-19T00:30:04.324Z,0
2017-11-19T00:31:05.798Z,0
2017-11-19T00:32:07.357Z,0
2017-11-19T00:33:08.765Z,0
2017-11-19T00:34:10.242Z,0
2017-11-19T00:35:11.689Z,0
2017-11-19T00:36:13.152Z,0
2017-11-19T00:37:14.723Z,0
2017-11-19T00:38:16.319Z,0
2017-11-19T00:39:17.754Z,0
2017-11-19T00:40:19.225Z,0
2017-11-19T00:41:20.724Z,0
2017-11-19T00:42:22.196Z,0
2017-11-19T00:43:23.754Z,0
2017-11-19T00:44:25.228Z,0
2017-11-19T00:45:26.728Z,0
2017-11-19T00:46:28.184Z,0
2017-11-19T00:47:29.686Z,0
2017-11-19T00:48:31.182Z,0
2017-11-19T00:49:32.625Z,0
2017-11-19T00:50:34.061Z,0
2017-11-19T00:51:35.567Z,0
2017-11-19T00:52:36.985Z,0
2017-11-19T00:53:38.525Z,0
2017-11-19T00:54:40.005Z,0
2017-11-19T00:55:41.470Z,0
2017-11-19T00:56:42.920Z,0
2017-11-19T00:57:44.422Z,0
2017-11-19T00:58:45.865Z,0
2017-11-19T00:59:47.381Z,0
2017-11-19T01:00:48.880Z,0
2017-11-19T01:01:50.339Z,0
2017-11-19T01:02:51.907Z,0
2017-11-19T01:03:53.392Z,0
2017-11-19T01:04:54.907Z,0
2017-11-19T01:05:56.427Z,0
2017-11-19T01:06:57.887Z,0
2017-11-19T01:07:59.417Z,0
2017-11-19T01:09:00.919Z,0
2017-11-19T01:10:02.412Z,0
2017-11-19T01:11:03.792Z,0
2017-11-19T01:12:05.275Z,0
2017-11-19T01:13:06.762Z,0
2017-11-19T01:14:08.216Z,0
2017-11-19T01:15:09.725Z,0
2017-11-19T01:16:11.180Z,0
2017-11-19T01:17:12.625Z,0
2017-11-19T01:18:14.123Z,0
2017-11-19T01:19:15.594Z,0
2017-11-19T01:20:17.071Z,0
2017-11-19T01:21:18.600Z,0
2017-11-19T01:22:20.066Z,0
2017-11-19T01:23:21.489Z,0
2017-11-19T01:24:23.046Z,0
2017-11-19T01:25:24.497Z,0
2017-11-19T01:26:25.976Z,0
2017-11-19T01:27:27.507Z,0
2017-11-19T01:28:29.062Z,0
2017-11-19T01:29:30.541Z,0
2017-11-19T01:30:32.085Z,0
2017-11-19T01:31:33.598Z,0
2017-11-19T01:32:35.026Z,0
2017-11-19T01:33:36.573Z,0
2017-11-19T01:34:38.122Z,0
2017-11-19T01:35:39.636Z,0
2017-11-19T01:36:41.127Z,0
2017-11-19T01:37:42.627Z,0
2017-11-19T01:38:44.069Z,0
2017-11-19T01:39:45.578Z,0
2017-11-19T01:40:47.062Z,0
2017-11-19T01:41:49.459Z,0
2017-11-19T01:42:50.950Z,0
2017-11-19T01:43:52.401Z,0
2017-11-19T01:44:53.991Z,0
2017-11-19T01:45:55.490Z,0
2017-11-19T01:46:56.969Z,0
2017-11-19T01:47:58.470Z,0
2017-11-19T01:49:00.031Z,0
2017-11-19T01:50:01.568Z,0
2017-11-19T01:51:03.051Z,0
2017-11-19T01:52:04.524Z,0
2017-11-19T01:53:05.922Z,0
2017-11-19T01:54:07.570Z,0
2017-11-19T01:55:09.047Z,0
2017-11-19T01:56:10.503Z,0
2017-11-19T01:57:11.991Z,0
2017-11-19T01:58:13.491Z,0
2017-11-19T01:59:14.934Z,0
2017-11-19T02:00:16.404Z,0
2017-11-19T02:01:17.930Z,0
2017-11-19T02:02:19.434Z,0
2017-11-19T02:03:20.917Z,0
2017-11-19T02:04:22.380Z,0
2017-11-19T02:05:23.911Z,0
2017-11-19T02:06:25.404Z,0
2017-11-19T02:07:26.836Z,0
2017-11-19T02:08:28.342Z,0
2017-11-19T02:09:29.852Z,0
2017-11-19T02:10:31.433Z,0
2017-11-19T02:11:32.898Z,0
2017-11-19T02:12:34.530Z,0
2017-11-19T02:13:36.801Z,0
2017-11-19T02:14:38.332Z,0
2017-11-19T02:15:39.891Z,0
2017-11-19T02:16:41.447Z,0
2017-11-19T02:17:42.992Z,0
2017-11-19T02:18:44.617Z,0
2017-11-19T02:19:46.077Z,0
2017-11-19T02:20:47.536Z,0
2017-11-19T02:21:49.061Z,0
2017-11-19T02:22:50.476Z,0
2017-11-19T02:23:51.916Z,0
2017-11-19T02:24:53.418Z,0
2017-11-19T02:25:54.871Z,0
2017-11-19T02:26:56.297Z,0
2017-11-19T02:27:57.787Z,0
2017-11-19T02:28:59.255Z,0
2017-11-19T02:30:00.714Z,0
2017-11-19T02:31:02.173Z,0
2017-11-19T02:32:03.762Z,0
2017-11-19T02:33:05.224Z,0
2017-11-19T02:34:06.792Z,0
2017-11-19T02:35:08.255Z,0
2017-11-19T02:36:09.783Z,0
2017-11-19T02:37:11.357Z,0
2017-11-19T02:38:12.888Z,0
2017-11-19T02:39:14.433Z,0
2017-11-19T02:40:15.881Z,0
2017-11-19T02:41:17.338Z,0
2017-11-19T02:42:18.841Z,0
2017-11-19T02:43:20.371Z,0
2017-11-19T02:44:21.857Z,0
2017-11-19T02:45:23.302Z,0
2017-11-19T02:46:24.812Z,0
2017-11-19T02:47:26.311Z,0
2017-11-19T02:48:27.803Z,0
2017-11-19T02:49:29.267Z,0
2017-11-19T02:50:30.788Z,0
2017-11-19T02:51:32.237Z,0
2017-11-19T02:52:33.749Z,0
2017-11-19T02:53:35.259Z,0
2017-11-19T02:54:36.741Z,0
2017-11-19T02:55:38.249Z,0
2017-11-19T02:56:39.731Z,0
2017-11-19T02:57:41.273Z,0
2017-11-19T02:58:42.801Z,0
2017-11-19T02:59:44.274Z,0
2017-11-19T03:00:45.797Z,0
2017-11-19T03:01:47.501Z,0
2017-11-19T03:02:48.982Z,0
2017-11-19T03:03:50.497Z,0
2017-11-19T03:04:51.971Z,0
2017-11-19T03:05:53.462Z,0
2017-11-19T03:06:54.910Z,0
2017-11-19T03:07:56.498Z,0
2017-11-19T03:08:57.960Z,0
2017-11-19T03:09:59.452Z,0
2017-11-19T03:11:00.946Z,0
2017-11-19T03:12:02.443Z,0
2017-11-19T03:13:03.909Z,0
2017-11-19T03:14:05.485Z,0
2017-11-19T03:15:06.940Z,0
2017-11-19T03:16:08.474Z,0
2017-11-19T03:17:10.009Z,0
2017-11-19T03:18:11.466Z,0
2017-11-19T03:19:12.901Z,0
2017-11-19T03:20:14.487Z,0
2017-11-19T03:21:15.977Z,0
2017-11-19T03:22:17.415Z,0
2017-11-19T03:23:18.935Z,0
2017-11-19T03:24:20.355Z,0
2017-11-19T03:25:21.808Z,0
2017-11-19T03:26:23.404Z,0
2017-11-19T03:27:24.837Z,0
2017-11-19T03:28:26.282Z,0
2017-11-19T03:29:27.784Z,0
2017-11-19T03:30:29.259Z,0
2017-11-19T03:31:30.702Z,0
2017-11-19T03:32:32.164Z,0
2017-11-19T03:33:33.680Z,0
2017-11-19T03:34:35.193Z,0
2017-11-19T03:35:36.691Z,0
2017-11-19T03:36:38.132Z,0
2017-11-19T03:37:39.635Z,0
2017-11-19T03:38:41.297Z,0
2017-11-19T03:39:42.879Z,0
2017-11-19T03:40:44.335Z,0
2017-11-19T03:41:45.879Z,0
2017-11-19T03:42:47.373Z,0
2017-11-19T03:43:48.843Z,0
2017-11-19T03:44:50.349Z,0
2017-11-19T03:45:51.870Z,0
2017-11-19T03:46:53.372Z,0
2017-11-19T03:47:54.952Z,0
2017-11-19T03:48:56.457Z,0
2017-11-19T03:49:57.883Z,0
2017-11-19T03:50:59.390Z,0
2017-11-19T03:52:00.944Z,0
2017-11-19T03:53:02.441Z,0
2017-11-19T03:54:03.949Z,0
2017-11-19T03:55:05.440Z,0
2017-11-19T03:56:06.890Z,0
2017-11-19T03:57:08.405Z,0
2017-11-19T03:58:09.940Z,0
2017-11-19T03:59:11.427Z,0
2017-11-19T04:00:12.926Z,0
2017-11-19T04:01:14.413Z,0
2017-11-19T04:02:15.906Z,0
2017-11-19T04:03:17.317Z,0
2017-11-19T04:04:18.776Z,0
2017-11-19T04:05:20.232Z,0
2017-11-19T04:06:21.707Z,0
2017-11-19T04:07:23.173Z,0
2017-11-19T04:08:24.733Z,0
2017-11-19T04:09:26.179Z,0
2017-11-19T04:10:27.674Z,0
2017-11-19T04:11:29.107Z,0
2017-11-19T04:12:30.600Z,0
2017-11-19T04:13:32.060Z,0
2017-11-19T04:14:33.616Z,0
2017-11-19T04:15:35.106Z,0
2017-11-19T04:16:36.559Z,0
2017-11-19T04:17:38.013Z,0
2017-11-19T04:18:39.523Z,0
2017-11-19T04:19:41.004Z,0
2017-11-19T04:20:42.414Z,0
2017-11-19T04:21:43.911Z,0
2017-11-19T04:22:45.441Z,0
2017-11-19T04:23:46.890Z,0
2017-11-19T04:24:48.343Z,0
2017-11-19T04:25:49.886Z,0
2017-11-19T04:26:51.355Z,0
2017-11-19T04:27:52.895Z,0
2017-11-19T04:28:54.432Z,0
2017-11-19T04:29:55.907Z,0
2017-11-19T04:30:57.309Z,0
2017-11-19T04:31:58.798Z,0
2017-11-19T04:33:00.272Z,0
2017-11-19T04:34:52.702Z,0
2017-11-19T04:35:54.369Z,0
2017-11-19T04:36:55.805Z,0
2017-11-19T04:37:57.215Z,0
2017-11-19T04:38:58.647Z,0
2017-11-19T04:40:00.068Z,0
2017-11-19T04:41:01.479Z,0
2017-11-19T04:42:02.985Z,0
2017-11-19T04:43:04.529Z,0
2017-11-19T04:44:05.999Z,0
2017-11-19T04:45:07.538Z,0
2017-11-19T04:46:08.974Z,0
2017-11-19T04:47:10.388Z,0
2017-11-19T04:48:11.886Z,0
2017-11-19T04:49:14.111Z,0
2017-11-19T04:50:15.698Z,0
2017-11-19T04:51:17.215Z,0
2017-11-19T04:52:18.643Z,0
2017-11-19T04:53:20.106Z,0
2017-11-19T04:54:21.717Z,0
2017-11-19T04:55:23.211Z,0
2017-11-19T04:56:24.813Z,0
2017-11-19T04:57:26.323Z,0
2017-11-19T04:58:27.804Z,0
2017-11-19T04:59:29.329Z,0
2017-11-19T05:00:30.813Z,0
2017-11-19T05:01:32.307Z,0
2017-11-19T05:02:33.807Z,0
2017-11-19T05:03:35.348Z,0
2017-11-19T05:04:36.779Z,0
2017-11-19T05:05:38.262Z,0
2017-11-19T05:06:39.784Z,0
2017-11-19T05:07:41.263Z,0
2017-11-19T05:08:42.750Z,0
2017-11-19T05:09:44.191Z,0
2017-11-19T05:10:45.583Z,0
2017-11-19T05:11:46.994Z,0
2017-11-19T05:12:48.473Z,0
2017-11-19T05:13:49.974Z,0
2017-11-19T05:14:51.384Z,0
2017-11-19T05:15:52.827Z,0
2017-11-19T05:16:54.248Z,0
2017-11-19T05:17:55.693Z,0
2017-11-19T05:18:57.103Z,0
2017-11-19T05:19:58.520Z,0
2017-11-19T05:20:59.941Z,0
2017-11-19T05:22:01.411Z,0
2017-11-19T05:23:02.826Z,0
2017-11-19T05:24:04.294Z,0
2017-11-19T05:25:05.728Z,0
2017-11-19T05:26:07.119Z,0
2017-11-19T05:27:08.518Z,0
2017-11-19T05:28:09.957Z,0
2017-11-19T05:29:11.414Z,0
2017-11-19T05:30:12.817Z,0
2017-11-19T05:31:14.239Z,0
2017-11-19T05:32:16.423Z,0
2017-11-19T05:33:17.887Z,0
2017-11-19T05:34:19.335Z,0
2017-11-19T05:35:20.786Z,0
2017-11-19T05:36:22.169Z,0
2017-11-19T05:37:23.572Z,0
2017-11-19T05:38:24.996Z,0
2017-11-19T05:39:26.405Z,0
2017-11-19T05:40:27.910Z,0
2017-11-19T05:41:29.366Z,0
2017-11-19T05:42:30.754Z,0
2017-11-19T05:43:32.186Z,0
2017-11-19T05:44:33.584Z,0
2017-11-19T05:45:34.971Z,0
2017-11-19T05:46:36.373Z,0
2017-11-19T05:47:37.782Z,0
2017-11-19T05:48:39.153Z,0
2017-11-19T05:49:40.561Z,0
2017-11-19T05:50:41.955Z,0
2017-11-19T05:51:43.359Z,0
2017-11-19T05:52:44.749Z,0
2017-11-19T05:53:46.178Z,0
2017-11-19T05:54:47.605Z,0
2017-11-19T05:55:49.002Z,0
2017-11-19T05:56:50.421Z,0
2017-11-19T05:57:51.831Z,0
2017-11-19T05:58:53.249Z,0
2017-11-19T05:59:54.651Z,0
2017-11-19T06:00:56.054Z,0
2017-11-19T06:01:57.460Z,0
2017-11-19T06:02:58.850Z,0
2017-11-19T06:04:00.340Z,0
2017-11-19T06:05:01.820Z,0
2017-11-19T06:06:03.277Z,0
2017-11-19T06:07:04.764Z,0
2017-11-19T06:08:06.242Z,0
2017-11-19T06:09:07.643Z,0
2017-11-19T06:10:09.081Z,0
2017-11-19T06:11:10.474Z,0
2017-11-19T06:12:11.950Z,0
2017-11-19T06:13:13.370Z,0
2017-11-19T06:14:14.757Z,0
2017-11-19T06:15:16.177Z,0
2017-11-19T06:16:17.638Z,0
2017-11-19T06:17:19.104Z,0
2017-11-19T06:18:20.513Z,0
2017-11-19T06:19:22.018Z,0
2017-11-19T06:20:23.441Z,0
2017-11-19T06:21:24.901Z,0
2017-11-19T06:22:26.331Z,0
2017-11-19T06:23:27.833Z,0
2017-11-19T06:24:29.280Z,0
2017-11-19T06:25:30.752Z,0
2017-11-19T06:26:32.145Z,0
2017-11-19T06:27:33.592Z,0
2017-11-19T06:28:35.017Z,0
2017-11-19T06:29:36.414Z,0
2017-11-19T06:30:37.944Z,0
2017-11-19T06:31:39.476Z,0
2017-11-19T06:32:40.898Z,0
2017-11-19T06:33:42.346Z,0
2017-11-19T06:34:43.866Z,0
2017-11-19T06:35:45.387Z,0
2017-11-19T06:36:46.893Z,0
2017-11-19T06:37:48.446Z,5
2017-11-19T06:38:49.860Z,5
2017-11-19T06:39:51.296Z,5
2017-11-19T06:40:52.757Z,5
2017-11-19T06:41:54.168Z,5
2017-11-19T06:42:55.719Z,5
2017-11-19T06:43:57.124Z,5
2017-11-19T06:44:58.574Z,5
2017-11-19T06:46:00.030Z,5
2017-11-19T06:47:01.451Z,5
2017-11-19T06:48:02.855Z,5
2017-11-19T06:49:04.365Z,11
2017-11-19T06:50:05.798Z,11
2017-11-19T06:51:07.240Z,11
2017-11-19T06:52:08.791Z,11
2017-11-19T06:53:10.288Z,11
2017-11-19T06:54:11.695Z,11
2017-11-19T06:55:13.121Z,11
2017-11-19T06:56:14.596Z,11
2017-11-19T06:57:16.046Z,16
2017-11-19T06:58:17.519Z,16
2017-11-19T06:59:18.908Z,16
2017-11-19T07:00:20.378Z,16
2017-11-19T07:01:21.784Z,16
2017-11-19T07:02:23.227Z,16
2017-11-19T07:03:24.667Z,16
2017-11-19T07:04:26.083Z,16
2017-11-19T07:05:27.538Z,22
2017-11-19T07:06:28.948Z,22
2017-11-19T07:07:30.410Z,22
2017-11-19T07:08:31.874Z,22
2017-11-19T07:09:33.309Z,22
2017-11-19T07:10:34.720Z,22
2017-11-19T07:11:36.112Z,22
2017-11-19T07:12:37.518Z,22
2017-11-19T07:13:38.917Z,28
2017-11-19T07:14:40.324Z,28
2017-11-19T07:15:41.721Z,28
2017-11-19T07:16:43.248Z,28
2017-11-19T07:17:44.736Z,28
2017-11-19T07:18:46.175Z,28
2017-11-19T07:19:47.747Z,28
2017-11-19T07:20:49.263Z,28
2017-11-19T07:21:50.696Z,28
2017-11-19T07:22:52.122Z,33
2017-11-19T07:23:53.578Z,33
2017-11-19T07:24:55.049Z,39
2017-11-19T07:25:56.535Z,39
2017-11-19T07:26:57.976Z,45
2017-11-19T07:27:59.464Z,50
2017-11-19T07:29:00.939Z,45
2017-11-19T07:30:02.400Z,45
2017-11-19T07:31:03.869Z,45
2017-11-19T07:32:05.364Z,39
2017-11-19T07:33:06.878Z,33
2017-11-19T07:34:08.347Z,33
2017-11-19T07:35:09.808Z,33
2017-11-19T07:36:11.233Z,39
2017-11-19T07:37:12.733Z,39
2017-11-19T07:38:14.164Z,39
2017-11-19T07:39:15.582Z,39
2017-11-19T07:40:17.026Z,39
2017-11-19T07:41:18.438Z,39
2017-11-19T07:42:19.872Z,45
2017-11-19T07:43:21.320Z,45
2017-11-19T07:44:22.784Z,56
2017-11-19T07:45:24.272Z,61
2017-11-19T07:46:25.657Z,67
2017-11-19T07:47:27.103Z,67
2017-11-19T07:48:28.593Z,73
2017-11-19T07:49:30.101Z,78
2017-11-19T07:50:31.603Z,78
2017-11-19T07:51:33.040Z,78
2017-11-19T07:52:34.523Z,73
2017-11-19T07:53:36.007Z,67
2017-11-19T07:54:37.502Z,67
2017-11-19T07:55:38.938Z,61
2017-11-19T07:56:40.423Z,61
2017-11-19T07:57:41.908Z,61
2017-11-19T07:58:43.400Z,61
2017-11-19T07:59:44.839Z,50
2017-11-19T08:00:46.264Z,50
2017-11-19T08:01:47.717Z,50
2017-11-19T08:02:49.243Z,50
2017-11-19T08:03:50.765Z,50
2017-11-19T08:04:52.339Z,50
2017-11-19T08:05:53.728Z,50
2017-11-19T08:06:55.154Z,50
2017-11-19T08:07:57.111Z,50
2017-11-19T08:08:58.708Z,45
2017-11-19T08:10:00.185Z,45
2017-11-19T08:11:01.668Z,50
2017-11-19T08:12:03.143Z,50
2017-11-19T08:13:04.620Z,50
2017-11-19T08:14:06.095Z,50
2017-11-19T08:15:07.527Z,50
2017-11-19T08:16:09.057Z,50
2017-11-19T08:17:10.476Z,50
2017-11-19T08:18:11.912Z,50
2017-11-19T08:19:13.377Z,56
2017-11-19T08:20:14.801Z,56
2017-11-19T08:21:16.257Z,61
2017-11-19T08:22:17.721Z,67
2017-11-19T08:23:19.203Z,73
2017-11-19T08:24:20.691Z,84
2017-11-19T08:25:22.168Z,84
2017-11-19T08:26:23.661Z,78
2017-11-19T08:27:25.098Z,84
2017-11-19T08:28:26.509Z,95
2017-11-19T08:29:27.936Z,112
2017-11-19T08:30:29.346Z,106
2017-11-19T08:31:30.770Z,106
2017-11-19T08:32:32.260Z,78
2017-11-19T08:33:33.711Z,95
2017-11-19T08:34:35.272Z,101
2017-11-19T08:35:36.759Z,90
2017-11-19T08:36:38.171Z,73
2017-11-19T08:37:39.658Z,67
2017-11-19T08:38:41.087Z,67
2017-11-19T08:39:42.519Z,67
2017-11-19T08:40:43.984Z,78
2017-11-19T08:41:45.458Z,67
2017-11-19T08:42:47.666Z,50
2017-11-19T08:43:49.118Z,61
2017-11-19T08:44:50.580Z,78
2017-11-19T08:45:51.987Z,101
2017-11-19T08:46:53.430Z,90
2017-11-19T08:47:54.906Z,118
2017-11-19T08:48:56.382Z,118
2017-11-19T08:49:58.505Z,123
2017-11-19T08:50:59.946Z,118
2017-11-19T08:52:01.447Z,135
2017-11-19T08:53:02.931Z,157
2017-11-19T08:54:04.388Z,123
2017-11-19T08:55:05.825Z,118
2017-11-19T08:56:07.267Z,78
2017-11-19T08:57:08.732Z,67
2017-11-19T08:58:10.181Z,67
2017-11-19T08:59:12.164Z,67
2017-11-19T09:00:13.614Z,90
2017-11-19T09:01:15.683Z,118
2017-11-19T09:02:17.124Z,157
2017-11-19T09:03:18.589Z,146
2017-11-19T09:04:20.043Z,151
2017-11-19T09:05:21.474Z,135
2017-11-19T09:06:36.514Z,78
2017-11-19T09:07:37.836Z,67
2017-11-19T09:08:39.609Z,78
2017-11-19T09:09:41.089Z,106
2017-11-19T09:10:42.513Z,123
2017-11-19T09:11:44.391Z,151
2017-11-19T09:12:45.826Z,123
2017-11-19T09:13:47.586Z,106
2017-11-19T09:14:49.151Z,118
2017-11-19T09:15:50.606Z,106
2017-11-19T09:16:52.139Z,90
2017-11-19T09:17:53.798Z,101
2017-11-19T09:18:55.292Z,112
2017-11-19T09:19:57.219Z,112
2017-11-19T09:20:58.666Z,151
2017-11-19T09:22:00.172Z,118
2017-11-19T09:23:01.782Z,140
2017-11-19T09:24:03.147Z,140
2017-11-19T09:25:04.565Z,163
2017-11-19T09:26:06.076Z,157
2017-11-19T09:27:07.572Z,185
2017-11-19T09:28:09.066Z,236
2017-11-19T09:29:10.598Z,174
2017-11-19T09:30:12.165Z,219
2017-11-19T09:31:13.692Z,151
2017-11-19T09:32:15.255Z,163
2017-11-19T09:33:16.751Z,163
2017-11-19T09:34:18.261Z,123
2017-11-19T09:35:19.729Z,106
2017-11-19T09:36:21.250Z,90
2017-11-19T09:37:22.750Z,84
2017-11-19T09:38:24.291Z,73
2017-11-19T09:39:26.773Z,78
2017-11-19T09:40:28.782Z,90
2017-11-19T09:41:30.704Z,67
2017-11-19T09:42:32.392Z,73
2017-11-19T09:43:34.150Z,106
2017-11-19T09:44:36.173Z,146
2017-11-19T09:45:38.055Z,157
2017-11-19T09:46:39.713Z,168
2017-11-19T09:47:41.476Z,129
2017-11-19T09:48:43.258Z,168
2017-11-19T09:49:44.781Z,180
2017-11-19T09:50:46.695Z,208
2017-11-19T09:51:48.958Z,157
2017-11-19T09:52:50.738Z,202
2017-11-19T09:53:52.262Z,348
2017-11-19T09:54:54.044Z,275
2017-11-19T09:55:55.844Z,157
2017-11-19T09:57:01.474Z,123
2017-11-19T09:58:03.123Z,225
2017-11-19T09:59:04.765Z,151
2017-11-19T10:00:06.373Z,202
2017-11-19T10:01:07.964Z,174
2017-11-19T10:02:09.799Z,163
2017-11-19T10:03:11.830Z,196
2017-11-19T10:04:13.436Z,393
2017-11-19T10:05:15.074Z,196
2017-11-19T10:06:16.573Z,416
2017-11-19T10:07:18.077Z,225
2017-11-19T10:08:19.904Z,309
2017-11-19T10:09:21.446Z,191
2017-11-19T10:10:22.985Z,208
2017-11-19T10:11:25.638Z,247
2017-11-19T10:12:27.824Z,208
2017-11-19T10:13:29.897Z,236
2017-11-19T10:14:31.760Z,433
2017-11-19T10:15:33.542Z,455
2017-11-19T10:16:35.426Z,230
2017-11-19T10:17:37.129Z,236
2017-11-19T10:18:38.870Z,225
2017-11-19T10:19:40.795Z,202
2017-11-19T10:20:42.476Z,236
2017-11-19T10:21:43.992Z,225
2017-11-19T10:22:45.776Z,174
2017-11-19T10:23:47.417Z,219
2017-11-19T10:24:49.037Z,331
2017-11-19T10:25:50.846Z,326
2017-11-19T10:26:52.451Z,247
2017-11-19T10:27:54.172Z,230
2017-11-19T10:28:56.904Z,315
2017-11-19T10:29:58.592Z,303
2017-11-19T10:31:06.298Z,241
2017-11-19T10:32:13.936Z,241
2017-11-19T10:33:15.736Z,315
2017-11-19T10:34:17.234Z,292
2017-11-19T10:35:18.789Z,247
2017-11-19T10:36:20.321Z,157
2017-11-19T10:37:21.805Z,174
2017-11-19T10:38:23.516Z,196
2017-11-19T10:39:25.020Z,151
2017-11-19T10:40:26.611Z,146
2017-11-19T10:41:28.523Z,123
2017-11-19T10:42:30.173Z,129
2017-11-19T10:43:31.654Z,101
2017-11-19T10:44:33.232Z,95
2017-11-19T10:45:34.994Z,67
2017-11-19T10:46:41.058Z,56
2017-11-19T10:47:43.321Z,50
2017-11-19T10:48:45.354Z,56
2017-11-19T10:49:46.987Z,67
2017-11-19T10:50:48.890Z,61
2017-11-19T10:51:55.073Z,56
2017-11-19T10:52:57.503Z,50
2017-11-19T10:54:00.513Z,61
2017-11-19T10:55:49.508Z,67
2017-11-19T10:56:51.487Z,84
2017-11-19T10:57:54.097Z,95
2017-11-19T10:58:56.053Z,95
2017-11-19T10:59:57.815Z,78
2017-11-19T11:00:59.594Z,78
2017-11-19T11:02:01.303Z,95
2017-11-19T11:03:02.803Z,84
2017-11-19T11:04:04.475Z,118
2017-11-19T11:05:06.178Z,112
2017-11-19T11:06:07.650Z,112
2017-11-19T11:07:09.175Z,123
2017-11-19T11:08:10.592Z,168
2017-11-19T11:09:12.600Z,275
2017-11-19T11:10:14.211Z,281
2017-11-19T11:11:15.916Z,303
2017-11-19T11:12:17.504Z,258
2017-11-19T11:13:18.947Z,208
2017-11-19T11:14:20.592Z,196
2017-11-19T11:15:22.173Z,118
2017-11-19T11:16:23.801Z,146
2017-11-19T11:17:25.370Z,213
2017-11-19T11:18:26.905Z,157
2017-11-19T11:19:28.508Z,118
2017-11-19T11:20:30.862Z,112
2017-11-19T11:21:34.267Z,118
2017-11-19T11:22:35.900Z,123
2017-11-19T11:23:37.409Z,123
2017-11-19T11:24:39.050Z,135
2017-11-19T11:25:40.860Z,84
2017-11-19T11:26:43.121Z,90
2017-11-19T11:27:48.815Z,90
2017-11-19T11:28:58.604Z,84
2017-11-19T11:30:03.381Z,73
2017-11-19T11:31:06.817Z,61
2017-11-19T11:32:08.738Z,56
2017-11-19T11:33:13.220Z,61
2017-11-19T11:34:48.230Z,56
2017-11-19T11:35:48.172Z,61
2017-11-19T11:36:49.957Z,73
2017-11-19T11:37:51.618Z,78
2017-11-19T11:38:53.189Z,78
2017-11-19T11:39:54.899Z,56
2017-11-19T11:40:56.521Z,50
2017-11-19T11:41:58.284Z,50
2017-11-19T11:43:01.230Z,56
2017-11-19T11:44:03.017Z,45
2017-11-19T11:45:04.527Z,33
2017-11-19T11:46:06.046Z,33
2017-11-19T11:47:07.524Z,45
2017-11-19T11:48:09.003Z,50
2017-11-19T11:49:10.542Z,56
2017-11-19T11:50:12.051Z,50
2017-11-19T11:51:13.678Z,45
2017-11-19T11:52:15.411Z,50
2017-11-19T11:53:17.142Z,56
2017-11-19T11:54:18.898Z,50
2017-11-19T11:55:20.494Z,50
2017-11-19T11:56:22.198Z,45
2017-11-19T11:57:23.791Z,33
2017-11-19T11:58:25.528Z,50
2017-11-19T11:59:27.933Z,61
2017-11-19T12:00:29.553Z,56
2017-11-19T12:01:32.285Z,56
2017-11-19T12:02:33.834Z,33
2017-11-19T12:03:36.009Z,28
2017-11-19T12:04:37.795Z,33
2017-11-19T12:05:39.701Z,33
2017-11-19T12:06:41.488Z,33
2017-11-19T12:07:45.187Z,33
2017-11-19T12:08:46.724Z,45
2017-11-19T12:09:48.180Z,39
2017-11-19T12:10:49.645Z,33
2017-11-19T12:11:51.160Z,28
2017-11-19T12:12:53.557Z,22
2017-11-19T12:13:55.039Z,28
2017-11-19T12:14:56.566Z,22
2017-11-19T12:15:58.078Z,16
2017-11-19T12:16:59.589Z,16
2017-11-19T12:18:01.106Z,16
2017-11-19T12:19:02.556Z,16
2017-11-19T12:20:04.141Z,22
2017-11-19T12:21:05.713Z,22
2017-11-19T12:22:07.224Z,22
2017-11-19T12:23:08.690Z,22
2017-11-19T12:24:10.167Z,22
2017-11-19T12:25:11.808Z,22
2017-11-19T12:26:13.430Z,22
2017-11-19T12:27:14.949Z,16
2017-11-19T12:28:16.678Z,11
2017-11-19T12:29:18.237Z,16
2017-11-19T12:30:19.834Z,16
2017-11-19T12:31:21.437Z,22
2017-11-19T12:32:23.013Z,22
2017-11-19T12:33:25.558Z,16
2017-11-19T12:34:27.145Z,16
2017-11-19T12:35:28.632Z,16
2017-11-19T12:36:30.224Z,16
2017-11-19T12:37:31.871Z,16
2017-11-19T12:38:33.506Z,16
2017-11-19T12:39:35.113Z,16
2017-11-19T12:40:36.673Z,16
2017-11-19T12:41:38.202Z,16
2017-11-19T12:42:39.995Z,16
2017-11-19T12:43:41.613Z,28
2017-11-19T12:44:43.280Z,22
2017-11-19T12:45:44.951Z,16
2017-11-19T12:46:46.569Z,16
2017-11-19T12:47:48.210Z,16
2017-11-19T12:48:49.998Z,16
2017-11-19T12:49:51.700Z,11
2017-11-19T12:50:53.390Z,16
2017-11-19T12:51:55.144Z,22
2017-11-19T12:52:56.770Z,33
2017-11-19T12:53:58.269Z,39
2017-11-19T12:54:59.921Z,50
2017-11-19T12:56:01.489Z,50
2017-11-19T12:57:03.288Z,45
2017-11-19T12:58:04.898Z,45
2017-11-19T12:59:06.698Z,61
2017-11-19T13:00:08.205Z,61
2017-11-19T13:01:10.049Z,61
2017-11-19T13:02:11.721Z,61
2017-11-19T13:03:13.596Z,84
2017-11-19T13:04:15.217Z,61
2017-11-19T13:05:16.764Z,61
2017-11-19T13:06:18.415Z,56
2017-11-19T13:07:19.930Z,50
2017-11-19T13:08:21.510Z,56
2017-11-19T13:09:23.023Z,56
2017-11-19T13:10:24.558Z,67
2017-11-19T13:11:26.143Z,78
2017-11-19T13:12:27.794Z,84
2017-11-19T13:13:29.393Z,135
2017-11-19T13:14:31.098Z,129
2017-11-19T13:15:32.709Z,95
2017-11-19T13:16:34.406Z,90
2017-11-19T13:17:35.926Z,78
2017-11-19T13:18:37.514Z,90
2017-11-19T13:19:39.075Z,73
2017-11-19T13:20:40.910Z,61
2017-11-19T13:21:42.489Z,67
2017-11-19T13:22:44.257Z,61
2017-11-19T13:23:46.091Z,56
2017-11-19T13:24:47.661Z,50
2017-11-19T13:25:49.293Z,61
2017-11-19T13:26:50.856Z,67
2017-11-19T13:27:52.568Z,45
2017-11-19T13:28:54.314Z,33
2017-11-19T13:29:55.907Z,50
2017-11-19T13:30:57.514Z,45
2017-11-19T13:31:59.136Z,39
2017-11-19T13:33:00.827Z,45
2017-11-19T13:34:02.475Z,45
2017-11-19T13:35:04.113Z,45
2017-11-19T13:36:05.697Z,45
2017-11-19T13:37:07.359Z,56
2017-11-19T13:38:09.109Z,56
2017-11-19T13:39:10.670Z,61
2017-11-19T13:40:12.273Z,61
2017-11-19T13:41:13.904Z,45
2017-11-19T13:42:15.540Z,50
2017-11-19T13:43:17.121Z,56
2017-11-19T13:44:18.690Z,67
2017-11-19T13:45:20.316Z,61
2017-11-19T13:46:21.858Z,61
2017-11-19T13:47:23.462Z,61
2017-11-19T13:48:25.053Z,67
2017-11-19T13:49:26.616Z,61
2017-11-19T13:50:28.210Z,101
2017-11-19T13:51:29.855Z,118
2017-11-19T13:52:31.540Z,101
2017-11-19T13:53:33.133Z,84
2017-11-19T13:54:34.792Z,61
2017-11-19T13:55:36.376Z,56
2017-11-19T13:56:38.000Z,56
2017-11-19T13:57:39.603Z,61
2017-11-19T13:58:41.311Z,73
2017-11-19T13:59:42.915Z,90
2017-11-19T14:00:44.628Z,95
2017-11-19T14:01:46.279Z,90
2017-11-19T14:02:47.838Z,90
2017-11-19T14:03:49.574Z,84
2017-11-19T14:04:51.073Z,67
2017-11-19T14:05:52.600Z,78
2017-11-19T14:06:54.248Z,61
2017-11-19T14:07:55.864Z,56
2017-11-19T14:08:57.499Z,45
2017-11-19T14:09:59.115Z,45
2017-11-19T14:11:00.725Z,45
2017-11-19T14:12:02.294Z,56
2017-11-19T14:13:04.541Z,67
2017-11-19T14:14:06.101Z,61
2017-11-19T14:15:07.620Z,50
2017-11-19T14:16:09.194Z,39
2017-11-19T14:17:10.662Z,33
2017-11-19T14:18:12.186Z,28
2017-11-19T14:19:13.640Z,22
2017-11-19T14:20:15.316Z,22
2017-11-19T14:21:16.989Z,16
2017-11-19T14:22:18.488Z,16
2017-11-19T14:23:19.945Z,11
2017-11-19T14:24:21.455Z,16
2017-11-19T14:25:22.940Z,28
2017-11-19T14:26:24.446Z,39
2017-11-19T14:27:25.916Z,33
2017-11-19T14:28:27.349Z,33
2017-11-19T14:29:28.829Z,33
2017-11-19T14:30:30.315Z,33
2017-11-19T14:31:31.736Z,45
2017-11-19T14:32:33.213Z,39
2017-11-19T14:33:34.728Z,22
2017-11-19T14:34:36.250Z,28
2017-11-19T14:35:37.712Z,39
2017-11-19T14:36:39.223Z,39
2017-11-19T14:37:40.690Z,33
2017-11-19T14:38:42.286Z,33
2017-11-19T14:39:43.761Z,39
2017-11-19T14:40:45.331Z,39
2017-11-19T14:41:46.834Z,33
2017-11-19T14:42:48.314Z,33
2017-11-19T14:43:49.819Z,33
2017-11-19T14:44:51.372Z,28
2017-11-19T14:45:52.927Z,28
2017-11-19T14:46:54.461Z,28
2017-11-19T14:47:55.952Z,22
2017-11-19T14:48:57.454Z,22
2017-11-19T14:49:58.923Z,16
2017-11-19T14:51:00.484Z,22